Flight Track Log - Related Links

Times and Time Zones

All times are in EDT time to prevent confusion due to time zone crossing. See the SWA2353 flight status page for this flight to view local times or setup timezone preferences in your user account.

Time Position Orientation Groundspeed Altitude Reporting Facility
EDT Latitude Longitude Course Direction KTS MPH feet Rate Location/Type
Wed 06:28:22 PM 39.8667 -75.2333 57° Northeast 136 157 700  Level Philadelphia TRACON
Wed 06:28:58 PM 39.8833 -75.2000 57° Northeast 175 201 1,800 2,412 Climbing Philadelphia TRACON
Wed 06:29:59 PM 39.9000 -75.1333 72° East 202 232 4,600 2,777 Climbing Philadelphia TRACON
Wed 06:30:59 PM 39.9667 -75.1333 360° North 265 305 7,400 2,700 Climbing Philadelphia TRACON
Wed 06:31:59 PM 40.0167 -75.2167 308° West 299 344 10,000 1,350 Climbing Philadelphia TRACON
Wed 06:32:59 PM 40.0667 -75.3167 303° West 376 433 10,100 240 Climbing Philadelphia TRACON
Wed 06:34:04 PM 40.1364 -75.4272 310° West 371 427 10,500 1,286 Climbing New York Center
Wed 06:35:05 PM 40.1950 -75.5208 309° West 373 429 12,800 3,223 Climbing New York Center
Wed 06:36:05 PM 40.2697 -75.6322 311° West 368 423 17,000 2,033 Climbing New York Center
Wed 06:37:06 PM 40.3325 -75.7236 312° West 368 423 16,900 908 Descending New York Center
Wed 06:38:04 PM 40.4069 -75.8381 311° West 368 423 18,800 2,136 Climbing New York Center
Wed 06:39:04 PM 40.4500 -75.9475 297° West 368 423 21,100 2,550 Climbing New York Center
Wed 06:40:04 PM 40.4764 -76.1078 282° West 380 437 23,900 2,231 Climbing New York Center
Wed 06:41:05 PM 40.4950 -76.2458 280° West 393 452 25,600 1,770 Climbing New York Center
Wed 06:42:06 PM 40.5192 -76.4006 282° West 419 482 27,500 1,884 Climbing New York Center
Wed 06:43:06 PM 40.5447 -76.5611 282° West 440 506 29,400 1,780 Climbing New York Center
Wed 06:44:04 PM 40.5806 -76.7200 287° West 450 518 31,000 1,322 Climbing New York Center
Wed 06:45:04 PM 40.6225 -76.8767 289° West 460 529 32,000 1,240 Climbing New York Center
Wed 06:46:05 PM 40.6494 -77.0378 282° West 460 529 33,500 1,574 Climbing New York Center
Wed 06:47:06 PM 40.6761 -77.2044 282° West 460 529 35,200 1,561 Climbing New York Center
Wed 06:48:58 PM 40.7267 -77.5253 282° West 451 519 38,000 977 Climbing Cleveland Center
Wed 06:49:58 PM 40.7517 -77.6803 282° West 451 519 38,000  Level Cleveland Center
Wed 06:50:58 PM 40.7764 -77.8411 282° West 446 513 38,000  Level Cleveland Center
Wed 06:51:58 PM 40.7989 -77.9967 281° West 446 513 38,000  Level Cleveland Center
Wed 06:52:58 PM 40.8231 -78.1492 282° West 446 513 38,000  Level Cleveland Center
Wed 06:53:58 PM 40.8467 -78.2911 282° West 441 507 38,000  Level Cleveland Center
Wed 06:54:58 PM 40.8706 -78.4467 282° West 441 507 38,000  Level Cleveland Center
Wed 06:55:58 PM 40.8922 -78.6000 281° West 441 507 38,000  Level Cleveland Center
Wed 06:56:58 PM 40.9156 -78.7558 281° West 441 507 38,000  Level Cleveland Center
Wed 06:57:58 PM 40.9389 -78.9119 281° West 436 502 38,000  Level Cleveland Center
Wed 06:58:58 PM 40.9597 -79.0653 280° West 436 502 38,000  Level Cleveland Center
Wed 06:59:58 PM 40.9825 -79.2161 281° West 425 489 38,000  Level Cleveland Center
Wed 07:00:58 PM 41.0050 -79.3725 281° West 425 489 38,000  Level Cleveland Center
Wed 07:01:57 PM 41.0253 -79.5289 280° West 425 489 38,000  Level Cleveland Center
Wed 07:02:58 PM 41.0475 -79.6828 281° West 425 489 38,000  Level Cleveland Center
Wed 07:03:58 PM 41.0675 -79.8394 280° West 425 489 38,000  Level Cleveland Center
Wed 07:04:58 PM 41.0892 -79.9936 281° West 425 489 38,000  Level Cleveland Center
Wed 07:05:58 PM 41.1108 -80.1506 280° West 425 489 38,000  Level Cleveland Center
Wed 07:06:58 PM 41.1300 -80.3047 279° West 425 489 38,000  Level Cleveland Center
Wed 07:07:57 PM 41.1533 -80.4783 280° West 425 489 38,000  Level Cleveland Center
Wed 07:08:57 PM 41.1700 -80.6328 278° West 425 489 38,000  Level Cleveland Center
Wed 07:09:58 PM 41.1906 -80.7872 280° West 430 495 38,000  Level Cleveland Center
Wed 07:10:58 PM 41.2111 -80.9447 280° West 425 489 38,000  Level Cleveland Center
Wed 07:11:58 PM 41.2314 -81.1022 280° West 430 495 38,000  Level Cleveland Center
Wed 07:12:58 PM 41.2514 -81.2569 280° West 430 495 38,000  Level Cleveland Center
Wed 07:13:58 PM 41.2711 -81.4175 279° West 430 495 38,000  Level Cleveland Center
Wed 07:14:58 PM 41.2906 -81.5753 279° West 430 495 38,000  Level Cleveland Center
Wed 07:15:58 PM 41.3100 -81.7358 279° West 435 501 38,000  Level Cleveland Center
Wed 07:16:58 PM 41.3311 -81.8967 280° West 435 501 38,000  Level Cleveland Center
Wed 07:17:58 PM 41.3442 -82.0242 278° West 440 506 38,000  Level Cleveland Center
Wed 07:18:58 PM 41.3603 -82.2208 276° West 445 512 38,000  Level Cleveland Center
Wed 07:19:58 PM 41.3706 -82.3817 275° West 445 512 38,000  Level Cleveland Center
Wed 07:20:58 PM 41.3783 -82.5422 274° West 445 512 38,000  Level Cleveland Center
Wed 07:21:58 PM 41.3878 -82.7031 275° West 445 512 38,000  Level Cleveland Center
Wed 07:22:58 PM 41.3972 -82.8642 275° West 445 512 38,000  Level Cleveland Center
Wed 07:23:58 PM 41.4044 -83.0278 273° West 445 512 38,000  Level Cleveland Center
Wed 07:24:58 PM 41.4136 -83.1692 275° West 445 512 38,000 -50 Level Cleveland Center
Wed 07:25:58 PM 41.4200 -83.3439 273° West 440 506 37,900 -550 Descending Cleveland Center
Wed 07:26:58 PM 41.4286 -83.5050 274° West 440 506 36,900 -950 Descending Cleveland Center
Wed 07:27:58 PM 41.4369 -83.6633 274° West 440 506 36,000 -950 Descending Cleveland Center
Wed 07:28:58 PM 41.4447 -83.8300 274° West 445 512 35,000 -500 Descending Cleveland Center
Wed 07:29:58 PM 41.4506 -83.9936 273° West 445 512 35,000  Level Cleveland Center
Wed 07:30:58 PM 41.4578 -84.1603 273° West 445 512 35,000  Level Cleveland Center
Wed 07:31:58 PM 41.4681 -84.3022 276° West 445 512 35,000 -1,478 Level Cleveland Center
Wed 07:34:21 PM 41.4828 -84.7003 273° West 446 513 30,000 -1,463 Descending Chicago Center
Wed 07:35:23 PM 41.4889 -84.8644 273° West 444 511 30,000 -726 Level Chicago Center
Wed 07:36:25 PM 41.4950 -85.0303 273° West 448 516 28,500 -1,839 Descending Chicago Center
Wed 07:37:27 PM 41.5003 -85.1925 273° West 438 504 26,200 -2,226 Descending Chicago Center
Wed 07:38:29 PM 41.5042 -85.3822 272° West 422 486 23,900 -1,632 Descending Chicago Center
Wed 07:39:32 PM 41.5100 -85.5342 273° West 398 458 22,800 -1,344 Descending Chicago Center
Wed 07:40:34 PM 41.5147 -85.6797 273° West 388 447 21,100 -1,742 Descending Chicago Center
Wed 07:41:36 PM 41.5192 -85.8172 273° West 371 427 19,200 -1,742 Descending Chicago Center
Wed 07:42:38 PM 41.5222 -85.9517 272° West 363 418 17,500 -1,728 Descending Chicago Center
Wed 07:43:41 PM 41.5247 -86.0800 272° West 349 402 15,600 -1,839 Descending Chicago Center
Wed 07:44:42 PM 41.5225 -86.2069 269° West 344 396 13,700 -2,000 Descending Chicago Center
Wed 07:45:44 PM 41.5233 -86.3569 270° West 337 388 11,500 -1,645 Descending Chicago Center
Wed 07:46:46 PM 41.5219 -86.4733 269° West 318 366 10,300 -726 Descending Chicago Center
Wed 07:47:48 PM 41.5203 -86.5808 269° West 294 338 10,000 -145 Descending Chicago Center
Wed 07:48:50 PM 41.5206 -86.6847 270° West 281 323 10,000  Level Chicago Center
Wed 07:49:52 PM 41.5200 -86.7953 270° West 283 326 10,000 -240 Level Chicago Center
Wed 07:50:55 PM 41.5186 -86.9008 269° West 287 330 9,500 -912 Descending Chicago Center
Wed 07:51:57 PM 41.5178 -87.0053 269° West 284 327 8,100 -1,258 Descending Chicago Center
Wed 07:52:59 PM 41.5175 -87.1267 270° West 277 319 6,900 -577 Descending Chicago Center
Wed 07:53:41 PM 41.5333 -87.2000 286° West 285 328 7,100 -176 Climbing Chicago TRACON
Wed 07:54:41 PM 41.5667 -87.3000 294° West 288 331 6,600 -900 Descending Chicago TRACON
Wed 07:55:41 PM 41.6000 -87.4000 294° West 286 329 5,300 -1,214 Descending Chicago TRACON
Wed 07:56:05 PM 41.6067 -87.4186 296° West 289 333 4,900 -837 Descending Chicago Center
Wed 07:57:07 PM 41.6378 -87.5100 295° West 281 323 4,100 -629 Descending Chicago Center
Wed 07:58:09 PM 41.6844 -87.6125 301° West 277 319 3,600 -766 Descending Chicago Center
Wed 07:58:41 PM 41.7167 -87.6500 319° Northwest 276 318 2,900 -767 Descending Chicago TRACON
Wed 07:59:35 PM 41.7667 -87.7000 323° Northwest 269 310 2,500 -421 Descending Chicago TRACON
Wed 08:00:35 PM 41.8167 -87.6833 14° North 198 228 2,100 -750 Descending Chicago TRACON
Wed 08:01:35 PM 41.8000 -87.7333 246° West 134 154 1,000 -1,100 Descending Chicago TRACON

Login

Don't have an account? Register now (free) for customized features, flight alerts, and more!